x

Galveston,tx - 22 Nm East Of Galveston, Tx (42035) Wave Buoy

12:50pm - Sat 25th Oct 2014 All times are CDT. -5 hours from GMT.

  • Sig Wave height 1.6ft
  • Swell Direction
  • Peak Period 7s
  • Average Period 4s
  • Wind
    7mph, 9mph gusts
  • Sea Temp 77°f
  • Air Temp 72°f
  • Sea Pressure 1021.1mb
  • Galveston,tx -  22 Nm East Of Galveston, Tx
  • Galveston,tx -  22 Nm East Of Galveston, Tx

More Historic Weather Station data

Upgrade to MSW Pro to gain access to the past 30 days of data for over 8000 Wavebouys and Weather Stations around the globe.

Join Pro

Comparision Forecast

View Surf forecast
   
Sat 10/25 12:50pm 1.6ft 7s 4s 7 9 mph 1021.1mb 77f 72f
11:50am 1.3ft 7s 4s 9 11 mph 1021.6mb 77f 72f
10:50am 1.6ft 7s 4s 9 11 mph 1021.8mb 77f 73f
9:50am 1.3ft 8s 4s 9 11 mph 1021.7mb 77f 73f
8:50am 1.3ft 8s 4s 11 13 mph 1021mb 77f 73f
7:50am 1.3ft 8s 4s 11 16 mph 1020.4mb 77f 73f
6:50am 1.3ft 7s 4s 11 13 mph 1020mb 77f 73f
5:50am 1.3ft 8s 4s 9 11 mph 1019.7mb 77f 72f
4:50am 1.6ft 7s 4s 9 11 mph 1019.3mb 77f 73f
3:50am 1.3ft 7s 4s 7 9 mph 1019.2mb 77f 73f
2:50am 1.3ft 7s 4s 7 9 mph 1019.6mb 77f 73f
1:50am 1.3ft 7s 4s 9 11 mph 1019.7mb 77f 74f
12:50am 1.3ft 7s 5s 9 11 mph 1020mb 77f 74f
Fri 10/24 11:50pm 1.3ft 7s 5s 7 9 mph 1020.2mb 77f 73f
10:50pm 1.3ft 7s 5s 4 7 mph 1020.3mb 77f 73f
9:50pm 1.6ft 8s 5s 4
mph
1020mb 77f 73f
8:50pm 1.6ft 7s 5s 4
mph
1019.8mb 77f 72f
7:50pm 1.6ft 8s 5s 2
mph
1019.4mb 77f 71f
6:50pm 1.6ft 7s 5s 2
mph
1018.9mb 78f 71f
5:50pm 2ft 7s 5s 2 4 mph 1018.7mb 78f 72f
4:50pm 2ft 8s 4s 4 7 mph 1018.6mb 78f 71f
3:50pm 2ft 8s 4s 4 7 mph 1018.6mb 78f 71f
2:50pm 2.5ft 7s 4s 7 9 mph 1018.9mb 77f 69f
1:50pm 2.5ft 8s 4s 9 13 mph 1019.6mb 77f 68f
12:50pm 2.5ft 7s 4s 11 13 mph 1020.5mb 77f 67f
11:50am 2.5ft 7s 4s 11 16 mph 1020.9mb 77f 67f
10:50am 2.5ft 7s 4s 13 16 mph 1020.9mb 77f 67f
9:50am 2.5ft 8s 4s 11 13 mph 1020.6mb 77f 67f
8:50am 2.5ft 6s 4s 11 16 mph 1020.1mb 77f 68f
7:50am 2.5ft 7s 4s 11 16 mph 1019.6mb 77f 67f
6:50am 2.5ft 7s 4s 11 16 mph 1019.2mb 77f 67f
5:50am 2.5ft 7s 4s 11 13 mph 1019mb 77f 68f
4:50am 2.5ft 7s 4s 9 13 mph 1018.8mb 77f 69f
3:50am 2.5ft 7s 4s 9 11 mph 1018.7mb 77f 69f
2:50am 2.5ft 7s 4s 9 11 mph 1018.7mb 77f 70f
1:50am 2.5ft 7s 4s 9 13 mph 1018.7mb 77f 71f
12:50am 2ft 7s 4s 13 16 mph 1018.4mb 77f 71f
Thu 10/23 11:50pm 2.5ft 7s 4s 11 16 mph 1018.3mb 77f 71f
10:50pm 2.5ft 7s 4s 11 13 mph 1018.6mb 77f 72f
9:50pm 2ft 8s 4s 11 16 mph 1018.7mb 77f 73f
8:50pm 2ft 7s 5s 11 13 mph 1018.5mb 77f 73f
7:50pm 2.5ft 8s 5s 7 9 mph 1018mb 78f 73f
6:50pm 2.5ft 7s 5s 4 7 mph 1017.8mb 78f 73f
5:50pm 2.5ft 6s 5s 7 9 mph 1017.6mb 78f 73f
4:50pm 2.5ft 7s 5s 4 7 mph 1017.4mb 78f 73f
3:50pm 2.5ft 7s 5s 4 7 mph 1017.4mb 78f 72f
2:50pm 2.5ft 7s 5s 9 13 mph 1017.6mb 78f 72f
1:50pm 3ft 6s 4s 4 9 mph 1018.5mb 78f 72f
12:50pm 3ft 7s 4s 7 9 mph 1019.4mb 78f 72f
11:50am 2.5ft 6s 4s 9 11 mph 1019.6mb 78f 72f
10:50am 3ft 5s 4s 9 11 mph 1019.5mb 78f 72f
9:50am 3ft 5s 4s 11 13 mph 1019.3mb 78f 72f
8:50am 3ft 5s 4s 16 18 mph 1018.2mb 78f 72f
7:50am 3.5ft 5s 4s 16 18 mph 1018.1mb 78f 70f
6:50am 3.5ft 4s 4s 18 20 mph 1017.3mb 78f 71f
5:50am 3.5ft 5s 4s 16 18 mph 1017.2mb 78f 73f
4:50am 3.5ft 4s 4s 18 20 mph 1016.7mb 78f 73f
3:50am 3.5ft 5s 4s 16 18 mph 1017mb 78f 74f
2:50am 3ft 6s 4s 16 20 mph 1017.1mb 78f 74f
1:50am 3ft 6s 4s 16 20 mph 1017.2mb 78f 74f
12:50am 2.5ft 6s 4s 18 20 mph 1017.4mb 78f 75f
Wed 10/22 11:50pm 2.5ft 6s 5s 13 18 mph 1018.1mb 78f 75f
10:50pm 2.5ft 7s 5s 7 9 mph 1018.5mb 78f 75f
9:50pm 2.5ft 6s 5s 7 9 mph 1018.1mb 78f 75f
8:50pm 2.5ft 6s 5s 7 9 mph 1017.7mb 78f 75f
7:50pm 2.5ft 6s 4s 7 9 mph 1017.1mb 78f 75f
6:50pm 3ft 6s 4s 11 13 mph 1016.7mb 77f 75f
5:50pm 3ft 6s 4s 11 13 mph 1016.4mb 78f 75f
4:50pm 3.5ft 5s 4s 13 16 mph 1016.5mb 78f 75f
3:50pm 3.5ft 5s 4s 13 18 mph 1016.8mb 78f 74f
2:50pm 3.5ft 6s 4s 16 18 mph 1017mb 78f 74f
1:50pm 3.5ft 5s 4s 13 18 mph 1017.6mb 78f 74f
12:50pm 3.5ft 6s 4s 13 18 mph 1018.3mb 78f 74f
11:50am 3.5ft 6s 4s 16 18 mph 1018.7mb 78f 74f
10:50am 3.5ft 6s 4s 16 20 mph 1018.3mb 77f 75f
9:50am 3.5ft 6s 4s 16 20 mph 1018mb 77f 74f
8:50am 4ft 5s 4s 18 20 mph 1017.6mb 77f 74f
7:50am 3.5ft 6s 4s 18 20 mph 1016.8mb 77f 75f
6:50am 3.5ft 7s 4s 20 22 mph 1016.3mb 78f 75f
5:50am 3.5ft 7s 4s 18 22 mph 1015.8mb 78f 75f
4:50am 3.5ft 6s 4s 18 22 mph 1015.3mb 78f 76f
3:50am 3ft 7s 4s 16 18 mph 1015.4mb 78f 76f
2:50am 3.5ft 7s 4s 16 18 mph 1015.8mb 78f 76f
1:50am 3.5ft 6s 4s 16 18 mph 1015.9mb 78f 77f
12:50am 3.5ft 6s 4s 16 18 mph 1015.9mb 78f 77f
Tue 10/21 11:50pm 3ft 6s 4s 16 18 mph 1016.2mb 78f 77f
10:50pm 3ft 6s 4s 16 18 mph 1016.3mb 78f 77f
9:50pm 3ft 6s 4s 13 16 mph 1016.2mb 78f 77f
8:50pm 3ft 6s 4s 13
mph
1015.7mb 78f 77f
7:50pm 3.5ft 6s 4s 13 16 mph 1015.1mb 78f 77f
6:50pm 3.5ft 5s 4s 13 16 mph 1014.7mb 78f 76f